Time;durP1;ratioP1;P1;durP2;ratioP2;P2;SDS_P1;SDS_P2;PMS_P1;PMS_P2;Temp;Humidity;BMP_temperature;BMP_pressure;BME280_temperature;BME280_humidity;BME280_pressure;Samples;Min_cycle;Max_cycle;Signal;HPM_P1;HPM_P2
2021/10/13 00:01:12;;;;;;;7.53;6.08;;;;;;;22.52;55.42;100153.02;1790233;78;20974;-58
2021/10/13 00:03:38;;;;;;;7.15;6.10;;;;;;;22.52;55.40;100149.67;1801660;78;20898;-58
2021/10/13 00:06:04;;;;;;;8.13;6.37;;;;;;;22.52;55.40;100148.86;1788636;78;20952;-57
2021/10/13 00:08:30;;;;;;;9.23;6.20;;;;;;;22.51;55.37;100142.50;1789165;78;22630;-58
2021/10/13 00:10:56;;;;;;;8.63;6.83;;;;;;;22.51;55.35;100136.95;1787926;78;21053;-58
2021/10/13 00:13:22;;;;;;;8.30;6.10;;;;;;;22.49;55.35;100135.09;1790419;78;21623;-57
2021/10/13 00:15:48;;;;;;;8.50;5.67;;;;;;;22.49;55.35;100138.47;1783314;78;20920;-58
2021/10/13 00:18:15;;;;;;;8.00;6.42;;;;;;;22.48;55.36;100139.63;1790306;78;21545;-58
2021/10/13 00:20:41;;;;;;;8.23;6.10;;;;;;;22.47;55.34;100140.77;1800311;78;21188;-57
2021/10/13 00:23:07;;;;;;;7.20;5.75;;;;;;;22.47;55.33;100136.03;1786781;78;21063;-58
2021/10/13 00:25:33;;;;;;;8.75;6.83;;;;;;;22.47;55.32;100133.27;1783575;79;21034;-58
2021/10/13 00:27:59;;;;;;;9.43;6.08;;;;;;;22.48;55.31;100132.69;1796189;78;20866;-59
2021/10/13 00:30:25;;;;;;;8.15;6.42;;;;;;;22.46;55.29;100128.87;1789283;78;21572;-57
2021/10/13 00:32:51;;;;;;;8.98;6.75;;;;;;;22.46;55.25;100129.44;1788660;78;21557;-58
2021/10/13 00:35:17;;;;;;;8.43;6.08;;;;;;;22.44;55.26;100128.42;1791087;78;21538;-58
2021/10/13 00:37:43;;;;;;;10.05;5.85;;;;;;;22.42;55.25;100119.63;1784918;78;20955;-58
2021/10/13 00:40:11;;;;;;;7.78;6.05;;;;;;;22.43;55.23;100117.67;1792281;78;21105;-57
2021/10/13 00:42:38;;;;;;;10.08;6.50;;;;;;;22.42;55.26;100119.63;1796191;78;21023;-58
2021/10/13 00:45:08;;;;;;;10.05;6.40;;;;;;;22.43;55.25;100126.80;1790576;78;21264;-59
2021/10/13 00:47:35;;;;;;;7.72;6.30;;;;;;;22.43;55.21;100123.21;1794205;78;21040;-57
2021/10/13 00:50:06;;;;;;;7.75;6.37;;;;;;;22.42;55.21;100122.40;1785148;79;21105;-58
2021/10/13 00:52:32;;;;;;;8.55;6.40;;;;;;;22.41;55.20;100123.55;1793046;78;21119;-58
2021/10/13 00:54:58;;;;;;;10.00;6.83;;;;;;;22.42;55.17;100121.59;1774619;78;21103;-58
2021/10/13 00:57:24;;;;;;;8.55;6.15;;;;;;;22.40;55.15;100120.56;1799643;78;22121;-58
2021/10/13 00:59:51;;;;;;;9.45;6.03;;;;;;;22.40;55.16;100123.91;1786064;78;21093;-58
2021/10/13 01:02:22;;;;;;;7.65;6.03;;;;;;;22.38;55.13;100127.02;1792841;78;21493;-58
2021/10/13 01:05:15;;;;;;;9.03;6.78;;;;;;;22.38;55.15;100120.09;1785812;79;21493;-58
2021/10/13 01:08:03;;;;;;;7.62;5.95;;;;;;;22.38;55.12;100118.70;1789427;78;21060;-59
2021/10/13 01:10:57;;;;;;;9.13;7.03;;;;;;;22.38;55.11;100115.94;1793808;78;21278;-58
2021/10/13 01:14:03;;;;;;;9.10;6.30;;;;;;;22.37;55.09;100121.23;1785121;78;21348;-57
2021/10/13 01:16:56;;;;;;;8.13;6.30;;;;;;;22.35;55.07;100112.48;1719218;81;21080;-58
2021/10/13 01:19:48;;;;;;;8.13;6.78;;;;;;;22.33;55.05;100112.81;1788134;79;21525;-57
2021/10/13 01:22:44;;;;;;;8.40;6.47;;;;;;;22.31;55.04;100114.32;1793482;78;21128;-58
2021/10/13 01:25:59;;;;;;;8.10;6.67;;;;;;;22.30;55.02;100118.24;1796960;78;21506;-59
2021/10/13 01:28:28;;;;;;;10.78;7.28;;;;;;;22.29;55.04;100116.62;1789291;78;21360;-58
2021/10/13 01:31:05;;;;;;;9.05;6.47;;;;;;;22.26;55.03;100108.43;1796002;78;20983;-58
2021/10/13 01:33:44;;;;;;;8.10;6.62;;;;;;;22.26;55.03;100112.59;1791375;78;21501;-58
2021/10/13 01:36:12;;;;;;;9.53;6.70;;;;;;;22.25;55.04;100110.96;1795658;78;21054;-58
2021/10/13 01:38:42;;;;;;;7.33;6.28;;;;;;;22.25;55.01;100112.34;1790110;78;21062;-59
2021/10/13 01:41:09;;;;;;;9.10;6.53;;;;;;;22.25;55.01;100108.19;1728500;80;21055;-57
2021/10/13 01:43:37;;;;;;;9.93;7.35;;;;;;;22.24;55.01;100113.49;1757061;80;21096;-58
2021/10/13 01:46:03;;;;;;;8.73;6.70;;;;;;;22.23;55.04;100104.97;1789578;77;21185;-58
2021/10/13 01:48:29;;;;;;;8.73;6.78;;;;;;;22.24;55.01;100100.21;1785955;78;20939;-58
2021/10/13 01:50:55;;;;;;;8.83;6.90;;;;;;;22.24;55.01;100107.14;1788437;78;21026;-58
2021/10/13 01:53:23;;;;;;;10.23;6.75;;;;;;;22.25;54.99;100105.99;1781707;79;21015;-58
2021/10/13 01:55:50;;;;;;;8.73;6.67;;;;;;;22.25;54.99;100108.77;1790758;78;21174;-58
2021/10/13 01:58:16;;;;;;;8.53;6.83;;;;;;;22.24;54.98;100105.18;1802064;78;21582;-58
2021/10/13 02:00:45;;;;;;;8.95;6.75;;;;;;;22.24;54.97;100107.14;1790477;78;21137;-59
2021/10/13 02:03:11;;;;;;;9.15;6.70;;;;;;;22.23;54.94;100114.67;1788952;78;22029;-58
2021/10/13 02:05:37;;;;;;;9.28;7.10;;;;;;;22.22;54.95;100114.43;1786142;78;21000;-58
2021/10/13 02:08:04;;;;;;;9.00;7.08;;;;;;;22.21;54.93;100118.34;1793134;78;21078;-58
2021/10/13 02:10:30;;;;;;;8.90;6.97;;;;;;;22.23;54.93;100119.41;1788172;79;21539;-58
2021/10/13 02:12:57;;;;;;;7.58;6.22;;;;;;;22.22;54.93;100127.47;1793582;78;21029;-58
2021/10/13 02:15:23;;;;;;;8.78;6.70;;;;;;;22.23;54.92;100124.94;1793046;78;21473;-58
2021/10/13 02:17:51;;;;;;;8.50;6.37;;;;;;;22.23;54.92;100129.09;1798462;79;21090;-58
2021/10/13 02:20:19;;;;;;;8.60;7.05;;;;;;;22.23;54.88;100131.30;1739628;80;20982;-59
2021/10/13 02:22:49;;;;;;;8.68;6.58;;;;;;;22.23;54.86;100131.87;1752505;79;21487;-58
2021/10/13 02:25:15;;;;;;;10.32;6.97;;;;;;;22.22;54.85;100139.38;1753968;80;21041;-59
2021/10/13 02:27:51;;;;;;;8.13;6.55;;;;;;;22.21;54.84;100137.75;1762410;80;21302;-58
2021/10/13 02:30:17;;;;;;;8.93;7.00;;;;;;;22.21;54.84;100130.00;1754775;79;21095;-58
2021/10/13 02:32:43;;;;;;;8.50;6.92;;;;;;;22.21;54.84;100138.31;1794671;79;21733;-58
2021/10/13 02:35:09;;;;;;;8.65;6.62;;;;;;;22.21;54.83;100134.97;1802831;78;20945;-58
2021/10/13 02:37:35;;;;;;;8.05;6.10;;;;;;;22.21;54.80;100132.77;1789799;77;21064;-58
2021/10/13 02:40:04;;;;;;;8.28;6.85;;;;;;;22.21;54.81;100133.59;1788289;79;21380;-58
2021/10/13 02:42:31;;;;;;;8.28;6.80;;;;;;;22.21;54.78;100139.13;1798624;77;21503;-59
2021/10/13 02:44:57;;;;;;;8.70;6.60;;;;;;;22.21;54.78;100141.09;1770094;79;21100;-58
2021/10/13 02:47:46;;;;;;;8.95;6.67;;;;;;;22.19;54.77;100140.03;1791037;79;20904;-58
2021/10/13 02:50:32;;;;;;;8.33;6.90;;;;;;;22.18;54.76;100144.55;1783726;78;21094;-58
2021/10/13 02:53:12;;;;;;;8.75;6.60;;;;;;;22.18;54.75;100145.37;1791658;78;21286;-58
2021/10/13 02:55:50;;;;;;;8.43;6.58;;;;;;;22.19;54.77;100146.18;1785332;78;21070;-58
2021/10/13 02:58:40;;;;;;;8.88;6.42;;;;;;;22.18;54.72;100157.84;1793414;78;21023;-59
2021/10/13 03:01:05;;;;;;;8.88;6.30;;;;;;;22.17;54.72;100151.24;1768934;78;21122;-59
2021/10/13 03:03:46;;;;;;;8.20;6.33;;;;;;;22.15;54.71;100154.34;1798803;78;21661;-58
2021/10/13 03:06:13;;;;;;;8.88;6.50;;;;;;;22.15;54.71;100150.80;1789658;78;21868;-58
2021/10/13 03:08:39;;;;;;;6.78;5.58;;;;;;;22.14;54.72;100147.78;1787119;78;21422;-58
2021/10/13 03:11:05;;;;;;;6.87;5.58;;;;;;;22.15;54.74;100150.19;1792600;78;20920;-58
2021/10/13 03:13:37;;;;;;;5.90;4.92;;;;;;;22.19;54.70;100155.27;1790566;78;21137;-58
2021/10/13 03:16:05;;;;;;;5.22;4.42;;;;;;;22.22;54.66;100154.61;1781126;79;21482;-59
2021/10/13 03:18:32;;;;;;;6.15;4.55;;;;;;;22.25;54.59;100147.56;1715122;81;21152;-58
2021/10/13 03:20:58;;;;;;;5.50;4.47;;;;;;;22.29;54.53;100154.84;1750159;79;21114;-58
2021/10/13 03:23:24;;;;;;;5.90;4.58;;;;;;;22.32;54.48;100156.10;1756159;79;21032;-58
2021/10/13 03:25:51;;;;;;;5.72;4.50;;;;;;;22.34;54.42;100157.97;1753023;79;21126;-59
2021/10/13 03:28:17;;;;;;;5.22;4.08;;;;;;;22.37;54.36;100157.84;1747937;80;21010;-58
2021/10/13 03:30:48;;;;;;;5.97;4.30;;;;;;;22.39;54.31;100163.29;1748387;79;21615;-59
2021/10/13 03:33:12;;;;;;;5.03;4.10;;;;;;;22.42;54.25;100163.16;1737992;80;21051;-58
2021/10/13 03:35:38;;;;;;;5.15;3.98;;;;;;;22.44;54.21;100167.23;1752096;80;21181;-58
2021/10/13 03:38:05;;;;;;;5.47;4.33;;;;;;;22.48;54.15;100161.80;1750748;80;21071;-58
2021/10/13 03:40:33;;;;;;;7.15;4.45;;;;;;;22.50;54.11;100163.63;1749850;80;20981;-58
2021/10/13 03:43:00;;;;;;;5.42;4.22;;;;;;;22.53;54.07;100165.13;1750683;79;22202;-58
2021/10/13 03:45:26;;;;;;;4.95;4.20;;;;;;;22.55;54.02;100170.34;1752535;79;21039;-58
2021/10/13 03:47:53;;;;;;;5.47;4.17;;;;;;;22.57;53.99;100165.27;1754506;79;21177;-59
2021/10/13 03:50:20;;;;;;;5.37;4.12;;;;;;;22.59;53.97;100165.14;1748840;80;21506;-58
2021/10/13 03:52:48;;;;;;;4.60;3.80;;;;;;;22.61;53.93;100167.58;1752366;80;21136;-58
2021/10/13 03:55:16;;;;;;;5.15;4.08;;;;;;;22.64;53.94;100161.33;1749764;80;21197;-58
2021/10/13 03:57:42;;;;;;;5.03;4.03;;;;;;;22.67;53.93;100167.56;1750837;79;21074;-58
2021/10/13 04:00:11;;;;;;;5.60;4.15;;;;;;;22.71;53.89;100162.97;1752014;80;20916;-59
2021/10/13 04:02:37;;;;;;;4.92;3.90;;;;;;;22.74;53.87;100163.69;1754158;79;21106;-59
2021/10/13 04:05:05;;;;;;;7.78;4.20;;;;;;;22.77;53.87;100164.37;1756864;79;21036;-63
2021/10/13 04:07:32;;;;;;;6.40;4.10;;;;;;;22.79;53.85;100163.42;1756622;79;21164;-57
2021/10/13 04:09:59;;;;;;;7.90;4.72;;;;;;;22.80;53.86;100156.73;1755412;79;21154;-57
2021/10/13 04:12:26;;;;;;;9.70;4.90;;;;;;;22.82;53.88;100160.55;1751594;80;21154;-57
2021/10/13 04:14:52;;;;;;;6.70;3.83;;;;;;;22.85;53.92;100161.23;1750350;79;21048;-57
2021/10/13 04:17:19;;;;;;;11.03;4.90;;;;;;;22.87;53.95;100163.09;1755031;79;22044;-57
2021/10/13 04:19:45;;;;;;;10.38;5.30;;;;;;;22.88;53.97;100162.73;1790295;77;21970;-57
2021/10/13 04:22:11;;;;;;;9.10;4.70;;;;;;;22.91;54.00;100168.98;1786827;77;21536;-55
2021/10/13 04:24:37;;;;;;;7.12;4.17;;;;;;;22.94;54.03;100168.28;1790055;77;21494;-57
2021/10/13 04:27:03;;;;;;;6.70;4.08;;;;;;;22.97;54.05;100173.13;1795560;78;20929;-59
2021/10/13 04:29:29;;;;;;;15.60;5.90;;;;;;;22.98;54.10;100173.94;1779468;78;21075;-57
2021/10/13 04:31:56;;;;;;;18.35;7.30;;;;;;;23.00;54.11;100179.36;1788652;78;21093;-63
2021/10/13 04:34:22;;;;;;;23.75;8.53;;;;;;;23.01;54.12;100175.43;1788892;78;20976;-58
2021/10/13 04:36:48;;;;;;;6.45;3.98;;;;;;;23.04;54.15;100185.82;1787801;78;21615;-58
2021/10/13 04:39:14;;;;;;;7.83;4.83;;;;;;;23.05;54.20;100184.67;1791598;78;21635;-57
2021/10/13 04:41:40;;;;;;;5.37;4.03;;;;;;;23.08;54.20;100190.12;1794272;78;20984;-57
2021/10/13 04:44:06;;;;;;;23.65;8.80;;;;;;;23.09;54.24;100193.09;1792896;78;21291;-58
2021/10/13 04:46:33;;;;;;;9.25;4.83;;;;;;;23.09;54.26;100190.33;1781446;79;21426;-57
2021/10/13 04:49:00;;;;;;;6.45;4.17;;;;;;;23.10;54.29;100196.92;1781554;78;21105;-59
2021/10/13 04:51:26;;;;;;;114.80;38.98;;;;;;;23.11;54.33;100194.96;1786576;78;21204;-56
2021/10/13 04:53:52;;;;;;;119.22;36.60;;;;;;;23.12;54.39;100202.14;1789663;77;20908;-46
2021/10/13 04:56:18;;;;;;;35.50;13.10;;;;;;;23.13;54.43;100200.95;1787798;78;21569;-52
2021/10/13 04:58:44;;;;;;;11.53;5.78;;;;;;;23.14;54.49;100204.78;1790807;78;21328;-50
2021/10/13 05:01:10;;;;;;;9.40;4.97;;;;;;;23.16;54.50;100214.16;1787566;78;20936;-54
2021/10/13 05:03:37;;;;;;;13.78;6.62;;;;;;;23.18;54.54;100211.25;1786303;77;21557;-57
2021/10/13 05:06:03;;;;;;;15.35;7.05;;;;;;;23.22;54.62;100216.91;1790223;78;21012;-58
2021/10/13 05:08:30;;;;;;;7.62;4.67;;;;;;;23.26;54.73;100230.31;1807548;78;21456;-57
2021/10/13 05:10:56;;;;;;;11.08;5.58;;;;;;;23.30;54.85;100229.05;1805366;77;21046;-60
2021/10/13 05:13:22;;;;;;;10.48;6.08;;;;;;;23.31;54.94;100228.69;1731560;81;21065;-59
2021/10/13 05:15:48;;;;;;;9.88;5.95;;;;;;;23.34;54.96;100233.53;1810661;77;21099;-59
2021/10/13 05:18:14;;;;;;;6.65;5.17;;;;;;;23.36;54.95;100240.13;1800545;78;21152;-57
2021/10/13 05:20:40;;;;;;;9.65;4.70;;;;;;;23.38;54.91;100240.61;1799129;77;21525;-59
2021/10/13 05:23:06;;;;;;;7.90;4.90;;;;;;;23.39;54.81;100244.40;1734399;80;20895;-59
2021/10/13 05:25:32;;;;;;;8.28;4.90;;;;;;;23.41;54.75;100249.61;1729138;80;21108;-59
2021/10/13 05:27:58;;;;;;;7.35;5.08;;;;;;;23.42;54.66;100256.79;1759473;79;21526;-59
2021/10/13 05:30:24;;;;;;;8.45;5.15;;;;;;;23.41;54.63;100258.75;1744296;80;21080;-60
2021/10/13 05:32:50;;;;;;;8.33;4.40;;;;;;;23.41;54.57;100255.98;1744457;80;21356;-60
2021/10/13 05:35:16;;;;;;;12.35;5.25;;;;;;;23.39;54.53;100259.67;1735116;80;21069;-57
2021/10/13 05:37:42;;;;;;;18.15;5.83;;;;;;;23.37;54.53;100268.94;1762790;79;21482;-60
2021/10/13 05:40:11;;;;;;;15.93;6.22;;;;;;;23.37;54.54;100276.45;1728772;81;21341;-60
2021/10/13 05:42:38;;;;;;;11.63;5.10;;;;;;;23.36;54.56;100285.94;1783471;78;21043;-59
2021/10/13 05:45:05;;;;;;;15.18;6.00;;;;;;;23.35;54.59;100289.28;1788527;78;21113;-59
2021/10/13 05:47:31;;;;;;;11.95;6.08;;;;;;;23.34;54.60;100297.38;1794463;78;21126;-60
2021/10/13 05:49:57;;;;;;;12.45;5.45;;;;;;;23.34;54.61;100297.38;1784497;78;21076;-59
2021/10/13 05:52:23;;;;;;;11.80;5.15;;;;;;;23.33;54.61;100302.72;1793251;78;21750;-59
2021/10/13 05:54:49;;;;;;;15.93;6.40;;;;;;;23.32;54.67;100309.42;1794902;78;20918;-58
2021/10/13 05:57:15;;;;;;;16.32;5.87;;;;;;;23.29;54.72;100309.31;1785888;79;21463;-60
2021/10/13 05:59:42;;;;;;;11.28;5.90;;;;;;;23.28;54.80;100316.02;1790747;78;21052;-60
2021/10/13 06:02:08;;;;;;;11.33;4.95;;;;;;;23.26;54.87;100316.34;1791161;78;20999;-59
2021/10/13 06:04:34;;;;;;;7.78;4.33;;;;;;;23.23;54.91;100317.05;1792173;78;20890;-60
2021/10/13 06:07:00;;;;;;;10.23;4.37;;;;;;;23.22;54.93;100317.63;1729295;80;21129;-60
2021/10/13 06:09:27;;;;;;;11.38;5.87;;;;;;;23.21;54.95;100324.33;1759199;79;21162;-60
2021/10/13 06:11:53;;;;;;;12.55;5.50;;;;;;;23.22;54.96;100316.81;1751025;80;21497;-59
2021/10/13 06:14:19;;;;;;;11.20;6.40;;;;;;;23.20;54.99;100321.92;1753693;79;21134;-59
2021/10/13 06:16:45;;;;;;;14.30;5.92;;;;;;;23.19;55.05;100328.62;1747795;80;21111;-59
2021/10/13 06:19:11;;;;;;;10.58;5.95;;;;;;;23.17;55.09;100330.34;1747303;80;21122;-59
2021/10/13 06:21:37;;;;;;;12.25;6.72;;;;;;;23.17;55.13;100328.95;1785345;78;21192;-60
2021/10/13 06:24:04;;;;;;;9.85;5.62;;;;;;;23.14;55.21;100332.43;1782175;78;21612;-59
2021/10/13 06:26:31;;;;;;;13.08;6.22;;;;;;;23.17;55.28;100336.47;1794251;78;20953;-59
2021/10/13 06:28:57;;;;;;;10.38;5.87;;;;;;;23.19;55.36;100341.11;1799665;78;21600;-59
2021/10/13 06:31:24;;;;;;;8.65;5.37;;;;;;;23.22;55.47;100343.18;1790714;78;21228;-60
2021/10/13 06:33:52;;;;;;;9.20;5.40;;;;;;;23.23;55.54;100347.01;1789436;78;22967;-59
2021/10/13 06:36:19;;;;;;;9.48;5.55;;;;;;;23.27;55.58;100357.41;1793529;78;21138;-59
2021/10/13 06:38:45;;;;;;;10.00;5.92;;;;;;;23.28;55.60;100356.26;1794144;78;20988;-59
2021/10/13 06:41:11;;;;;;;11.97;6.35;;;;;;;23.28;55.55;100360.42;1790951;78;21166;-58
2021/10/13 06:43:38;;;;;;;11.40;6.20;;;;;;;23.27;55.51;100365.16;1800024;78;21086;-58
2021/10/13 06:46:04;;;;;;;8.60;5.90;;;;;;;23.27;55.47;100366.55;1784812;77;21510;-58
2021/10/13 06:48:30;;;;;;;10.30;5.97;;;;;;;23.26;55.45;100359.37;1791676;78;20979;-59
2021/10/13 06:50:58;;;;;;;10.43;5.87;;;;;;;23.27;55.42;100364.34;1793130;79;21565;-59
2021/10/13 06:53:26;;;;;;;9.75;5.58;;;;;;;23.27;55.36;100370.71;1788600;78;21074;-58
2021/10/13 06:55:53;;;;;;;9.90;6.00;;;;;;;23.27;55.33;100374.06;1786334;79;21047;-59
2021/10/13 06:58:19;;;;;;;8.43;6.00;;;;;;;23.25;55.28;100379.16;1797402;78;22048;-59
2021/10/13 07:00:45;;;;;;;8.73;5.20;;;;;;;23.23;55.25;100381.70;1789485;78;20943;-59
2021/10/13 07:03:11;;;;;;;8.80;5.90;;;;;;;23.21;55.21;100385.98;1798177;78;21465;-59
2021/10/13 07:05:37;;;;;;;8.53;5.45;;;;;;;23.17;55.22;100380.87;1797373;78;20884;-59
2021/10/13 07:08:04;;;;;;;8.48;5.60;;;;;;;23.15;55.20;100389.55;1789815;78;21106;-58
2021/10/13 07:10:31;;;;;;;8.50;5.80;;;;;;;23.13;55.23;100393.23;1797837;78;21102;-59
2021/10/13 07:12:57;;;;;;;9.50;5.95;;;;;;;23.12;55.20;100393.60;1730032;81;21035;-59
2021/10/13 07:15:23;;;;;;;8.23;5.87;;;;;;;23.11;55.20;100397.53;1748631;80;20972;-59
2021/10/13 07:17:49;;;;;;;7.97;5.53;;;;;;;23.10;55.16;100400.06;1749120;80;21138;-58
2021/10/13 07:20:16;;;;;;;7.70;5.62;;;;;;;23.08;55.17;100397.66;1758001;79;21150;-59
2021/10/13 07:22:42;;;;;;;9.05;5.70;;;;;;;23.06;55.16;100396.35;1750265;80;21320;-59
2021/10/13 07:25:08;;;;;;;10.70;5.75;;;;;;;23.05;55.14;100400.27;1752927;80;21376;-60
2021/10/13 07:27:35;;;;;;;9.23;5.42;;;;;;;23.01;55.13;100398.77;1751706;80;22597;-60
2021/10/13 07:30:02;;;;;;;8.60;5.47;;;;;;;23.00;55.14;100399.13;1757436;79;21936;-60
2021/10/13 07:32:31;;;;;;;7.92;5.80;;;;;;;22.97;55.14;100404.77;1757787;79;21015;-60
2021/10/13 07:34:57;;;;;;;11.70;6.35;;;;;;;22.96;55.14;100410.08;1751508;79;21339;-60
2021/10/13 07:37:24;;;;;;;9.63;5.75;;;;;;;22.95;55.13;100409.05;1751596;80;20979;-59
2021/10/13 07:39:50;;;;;;;8.05;5.22;;;;;;;22.94;55.13;100408.81;1753574;80;21191;-60
2021/10/13 07:42:17;;;;;;;7.97;5.58;;;;;;;22.93;55.11;100412.16;1752442;79;21102;-59
2021/10/13 07:44:44;;;;;;;8.53;5.55;;;;;;;22.92;55.11;100412.50;1747954;80;21134;-59
2021/10/13 07:47:10;;;;;;;7.25;5.10;;;;;;;22.91;55.09;100412.28;1750666;79;22206;-60
2021/10/13 07:49:37;;;;;;;8.20;5.30;;;;;;;22.89;55.08;100417.34;1746412;80;21047;-60
2021/10/13 07:52:03;;;;;;;7.50;5.05;;;;;;;22.87;55.08;100419.67;1752983;79;21067;-58
2021/10/13 07:54:30;;;;;;;8.28;5.65;;;;;;;22.86;55.07;100424.41;1762586;79;21559;-59
2021/10/13 07:56:56;;;;;;;8.25;5.50;;;;;;;22.84;55.08;100423.92;1743016;80;21062;-59
2021/10/13 07:59:22;;;;;;;7.10;5.40;;;;;;;22.83;55.07;100430.61;1794116;79;21349;-59
2021/10/13 08:01:48;;;;;;;7.78;5.45;;;;;;;22.84;55.05;100425.88;1730765;80;21628;-60
2021/10/13 08:04:14;;;;;;;8.30;5.92;;;;;;;22.82;55.06;100432.36;1758244;79;20876;-59
2021/10/13 08:06:40;;;;;;;8.43;5.75;;;;;;;22.81;55.04;100427.39;1756454;79;21603;-59
2021/10/13 08:09:06;;;;;;;8.40;5.65;;;;;;;22.80;55.02;100435.47;1755234;79;21492;-59
2021/10/13 08:11:32;;;;;;;7.30;5.10;;;;;;;22.79;55.02;100429.67;1758735;79;21328;-59
2021/10/13 08:13:58;;;;;;;8.00;5.17;;;;;;;22.76;55.01;100430.37;1759899;79;21117;-59
2021/10/13 08:16:25;;;;;;;8.13;5.62;;;;;;;22.74;55.00;100432.09;1728403;81;21046;-59
2021/10/13 08:18:51;;;;;;;7.80;5.30;;;;;;;22.74;55.00;100430.70;1799995;77;21421;-59
2021/10/13 08:21:17;;;;;;;7.78;5.50;;;;;;;22.74;54.99;100434.86;1787784;78;21004;-59
2021/10/13 08:23:43;;;;;;;8.05;5.67;;;;;;;22.74;55.00;100431.30;1794851;78;22862;-59
2021/10/13 08:26:09;;;;;;;7.90;5.53;;;;;;;22.74;54.97;100432.09;1798286;78;20979;-59
2021/10/13 08:28:35;;;;;;;8.38;5.30;;;;;;;22.74;54.98;100431.30;1791693;78;21565;-59
2021/10/13 08:31:02;;;;;;;9.45;6.03;;;;;;;22.73;54.93;100429.10;1787238;78;21110;-60
2021/10/13 08:33:28;;;;;;;6.65;5.05;;;;;;;22.71;54.93;100427.23;1780554;79;21015;-59
2021/10/13 08:35:54;;;;;;;7.03;5.10;;;;;;;22.70;54.90;100424.81;1785825;78;21327;-59
2021/10/13 08:38:20;;;;;;;7.78;5.20;;;;;;;22.68;54.90;100419.56;1793161;78;20979;-59
2021/10/13 08:40:46;;;;;;;7.85;5.40;;;;;;;22.68;54.91;100428.46;1789809;78;21516;-58
2021/10/13 08:43:12;;;;;;;6.28;5.05;;;;;;;22.67;54.90;100417.94;1786401;78;20872;-58
2021/10/13 08:45:38;;;;;;;7.80;4.80;;;;;;;22.68;54.88;100427.08;1785421;78;22240;-59
2021/10/13 08:48:06;;;;;;;8.78;5.20;;;;;;;22.68;54.89;100427.08;1788877;78;21544;-58
2021/10/13 08:50:35;;;;;;;7.55;5.08;;;;;;;22.67;54.88;100429.60;1793463;78;21069;-58
2021/10/13 08:53:13;;;;;;;6.35;4.50;;;;;;;22.66;54.86;100428.00;1785413;78;20996;-59
2021/10/13 08:55:40;;;;;;;6.08;4.70;;;;;;;22.65;54.85;100429.97;1799149;78;21084;-59
2021/10/13 08:58:18;;;;;;;5.37;4.80;;;;;;;22.65;54.85;100434.70;1787524;78;21141;-59
2021/10/13 09:00:48;;;;;;;7.30;5.30;;;;;;;22.62;54.85;100433.39;1788161;79;21992;-59
2021/10/13 09:03:29;;;;;;;7.87;5.10;;;;;;;22.62;54.84;100431.19;1792639;78;21102;-59
2021/10/13 09:05:57;;;;;;;5.50;4.50;;;;;;;22.62;54.84;100436.17;1800101;78;21471;-59
2021/10/13 09:08:23;;;;;;;7.83;4.85;;;;;;;22.61;54.82;100433.75;1797361;78;21116;-59
2021/10/13 09:10:55;;;;;;;6.78;5.28;;;;;;;22.59;54.81;100431.31;1789128;79;21201;-59
2021/10/13 09:13:22;;;;;;;6.78;4.83;;;;;;;22.59;54.82;100433.27;1794299;77;21173;-59
2021/10/13 09:15:51;;;;;;;5.78;4.80;;;;;;;22.58;54.80;100430.25;1792583;78;21049;-59
2021/10/13 09:18:22;;;;;;;8.30;5.25;;;;;;;22.56;54.82;100434.77;1789611;79;21149;-59
2021/10/13 09:20:53;;;;;;;7.15;4.78;;;;;;;22.55;54.80;100437.30;1794562;78;21585;-59
2021/10/13 09:23:29;;;;;;;6.28;4.60;;;;;;;22.54;54.82;100442.60;1794440;78;21051;-59
2021/10/13 09:26:10;;;;;;;5.90;4.70;;;;;;;22.54;54.83;100440.41;1787761;79;21537;-59
2021/10/13 09:28:37;;;;;;;6.22;4.85;;;;;;;22.54;54.84;100443.98;1792106;78;21107;-59
2021/10/13 09:31:18;;;;;;;8.25;5.40;;;;;;;22.54;54.80;100445.38;1788700;78;21160;-59
2021/10/13 09:34:02;;;;;;;7.03;4.87;;;;;;;22.55;54.80;100448.96;1803487;78;21532;-60
2021/10/13 09:36:42;;;;;;;6.12;4.85;;;;;;;22.53;54.77;100445.12;1784512;79;21053;-60
2021/10/13 09:39:12;;;;;;;6.12;4.87;;;;;;;22.51;54.76;100448.84;1790613;77;21552;-60
2021/10/13 09:42:07;;;;;;;6.40;5.17;;;;;;;22.49;54.75;100444.19;1799635;78;21084;-59
2021/10/13 09:44:42;;;;;;;7.40;5.00;;;;;;;22.49;54.77;100454.50;1790352;79;21535;-59
2021/10/13 09:47:11;;;;;;;7.42;5.12;;;;;;;22.49;54.77;100452.50;1790210;78;21209;-60
2021/10/13 09:49:43;;;;;;;6.33;4.70;;;;;;;22.48;54.76;100453.68;1782825;78;21163;-60
2021/10/13 09:52:19;;;;;;;7.10;5.03;;;;;;;22.48;54.74;100450.91;1790834;78;21453;-60
2021/10/13 09:54:47;;;;;;;10.00;6.60;;;;;;;22.48;54.76;100460.61;1785506;78;21006;-59
2021/10/13 09:57:24;;;;;;;6.83;5.45;;;;;;;22.46;54.76;100458.73;1793036;78;21120;-58
2021/10/13 10:00:12;;;;;;;6.78;5.05;;;;;;;22.46;54.72;100458.73;1791808;78;21560;-58
2021/10/13 10:02:44;;;;;;;7.15;5.45;;;;;;;22.46;54.72;100460.69;1791291;78;21052;-58
2021/10/13 10:05:16;;;;;;;6.35;4.30;;;;;;;22.44;54.73;100459.66;1774101;78;21117;-58
2021/10/13 10:07:46;;;;;;;7.35;4.75;;;;;;;22.43;54.72;100457.22;1780281;78;21654;-59
2021/10/13 10:10:17;;;;;;;6.50;4.55;;;;;;;22.43;54.72;100461.38;1783028;78;21045;-58
2021/10/13 10:12:56;;;;;;;6.15;4.75;;;;;;;22.43;54.72;100465.54;1788843;78;21162;-58
2021/10/13 10:15:39;;;;;;;5.87;4.37;;;;;;;22.39;54.73;100458.48;1796077;78;21076;-58
2021/10/13 10:18:32;;;;;;;6.12;4.85;;;;;;;22.42;54.71;100466.11;1788953;78;21148;-58
2021/10/13 10:21:25;;;;;;;6.90;4.85;;;;;;;22.41;54.71;100467.25;1793932;78;21057;-59
2021/10/13 10:23:56;;;;;;;5.60;4.50;;;;;;;22.40;54.69;100465.66;1788805;78;21432;-58
2021/10/13 10:26:32;;;;;;;7.05;4.85;;;;;;;22.38;54.68;100473.48;1784830;78;21048;-59
2021/10/13 10:29:01;;;;;;;7.25;4.62;;;;;;;22.37;54.69;100473.23;1791300;78;21048;-59
2021/10/13 10:31:32;;;;;;;7.05;4.75;;;;;;;22.36;54.69;100470.25;1791694;77;22008;-59
2021/10/13 10:34:08;;;;;;;6.15;4.50;;;;;;;22.35;54.70;100467.23;1795559;78;20991;-59
2021/10/13 10:36:40;;;;;;;6.97;4.47;;;;;;;22.37;54.68;100471.84;1788907;78;21039;-59
2021/10/13 10:39:13;;;;;;;5.47;4.30;;;;;;;22.37;54.68;100476.58;1764985;78;38142;-59
2021/10/13 10:41:55;;;;;;;5.22;4.15;;;;;;;22.36;54.68;100471.63;1787067;78;21074;-59
2021/10/13 10:44:42;;;;;;;7.45;4.55;;;;;;;22.36;54.65;100478.56;1793396;77;21537;-59
2021/10/13 10:47:11;;;;;;;5.70;4.53;;;;;;;22.35;54.66;100478.89;1778712;78;21102;-58
2021/10/13 10:49:55;;;;;;;6.37;4.22;;;;;;;22.32;54.64;100480.36;1786479;78;21306;-58
2021/10/13 10:52:27;;;;;;;5.33;4.50;;;;;;;22.33;54.66;100481.98;1788626;78;21103;-59
2021/10/13 10:55:04;;;;;;;5.92;4.40;;;;;;;22.31;54.67;100479.57;1780917;79;21684;-59
2021/10/13 10:57:41;;;;;;;5.45;3.92;;;;;;;22.32;54.67;100487.28;1784163;79;21209;-60
2021/10/13 11:00:16;;;;;;;6.58;4.30;;;;;;;22.33;54.64;100477.83;1791733;79;21049;-59
2021/10/13 11:02:42;;;;;;;5.85;3.85;;;;;;;22.32;54.66;100480.36;1784974;78;21010;-58
2021/10/13 11:05:10;;;;;;;5.90;4.30;;;;;;;22.33;54.65;100481.98;1790262;78;21072;-57
2021/10/13 11:07:40;;;;;;;5.20;4.08;;;;;;;22.32;54.64;100481.74;1783501;78;21066;-58
2021/10/13 11:10:11;;;;;;;5.35;3.90;;;;;;;22.32;54.65;100473.42;1785006;78;21150;-59
2021/10/13 11:12:57;;;;;;;8.45;4.40;;;;;;;22.31;54.62;100467.09;1785117;78;21051;-58
2021/10/13 11:15:28;;;;;;;6.12;4.60;;;;;;;22.32;54.64;100474.81;1787687;78;21019;-58
2021/10/13 11:17:54;;;;;;;4.67;3.95;;;;;;;22.32;54.64;100480.36;1736911;80;21115;-59
2021/10/13 11:20:25;;;;;;;7.33;4.97;;;;;;;22.31;54.60;100478.76;1798936;78;21035;-59
2021/10/13 11:23:02;;;;;;;;;;;;;;;22.31;54.61;100480.14;1797493;78;21130;-59
2021/10/13 11:25:28;;;;;;;9.45;4.53;;;;;;;22.32;54.62;100481.74;1796178;78;20270;-59
2021/10/13 11:28:03;;;;;;;5.92;4.22;;;;;;;22.30;54.61;100488.21;1793835;78;21479;-57
2021/10/13 11:30:34;;;;;;;4.78;3.75;;;;;;;22.28;54.61;100488.54;1738477;80;21110;-60
2021/10/13 11:33:00;;;;;;;7.03;4.80;;;;;;;22.27;54.62;100491.67;1786286;78;21128;-60
2021/10/13 11:35:26;;;;;;;6.22;4.58;;;;;;;22.27;54.62;100488.89;1720626;79;21319;-60